sensor_id;sensor_type;location;lat;lon;timestamp;temperature;humidity
10443;DHT22;5269;51.146;16.986;2023-05-10T00:01:44;9.60;1.00
10443;DHT22;5269;51.146;16.986;2023-05-10T00:04:11;9.60;1.00
10443;DHT22;5269;51.146;16.986;2023-05-10T00:06:38;9.50;1.00
10443;DHT22;5269;51.146;16.986;2023-05-10T00:09:15;9.40;1.00
10443;DHT22;5269;51.146;16.986;2023-05-10T00:11:42;9.40;1.00
10443;DHT22;5269;51.146;16.986;2023-05-10T00:14:09;9.40;1.00
10443;DHT22;5269;51.146;16.986;2023-05-10T00:16:44;9.30;1.00
10443;DHT22;5269;51.146;16.986;2023-05-10T00:19:13;9.20;1.00
10443;DHT22;5269;51.146;16.986;2023-05-10T00:21:40;9.20;1.00
10443;DHT22;5269;51.146;16.986;2023-05-10T00:24:13;9.10;1.00
10443;DHT22;5269;51.146;16.986;2023-05-10T00:26:54;9.10;1.00
10443;DHT22;5269;51.146;16.986;2023-05-10T00:29:25;9.00;1.00
10443;DHT22;5269;51.146;16.986;2023-05-10T00:31:53;9.00;1.00
10443;DHT22;5269;51.146;16.986;2023-05-10T00:34:24;8.90;1.00
10443;DHT22;5269;51.146;16.986;2023-05-10T00:36:57;9.00;1.00
10443;DHT22;5269;51.146;16.986;2023-05-10T00:39:24;8.90;1.00
10443;DHT22;5269;51.146;16.986;2023-05-10T00:41:55;9.00;1.00
10443;DHT22;5269;51.146;16.986;2023-05-10T00:44:24;8.90;1.00
10443;DHT22;5269;51.146;16.986;2023-05-10T00:46:51;8.90;1.00
10443;DHT22;5269;51.146;16.986;2023-05-10T00:49:33;8.80;1.00
10443;DHT22;5269;51.146;16.986;2023-05-10T00:52:01;8.70;1.00
10443;DHT22;5269;51.146;16.986;2023-05-10T00:54:30;8.60;1.00
10443;DHT22;5269;51.146;16.986;2023-05-10T00:57:02;8.70;1.00
10443;DHT22;5269;51.146;16.986;2023-05-10T00:59:32;8.60;1.00
10443;DHT22;5269;51.146;16.986;2023-05-10T01:02:07;8.50;1.00
10443;DHT22;5269;51.146;16.986;2023-05-10T01:04:44;8.50;1.00
10443;DHT22;5269;51.146;16.986;2023-05-10T01:07:11;8.40;1.00
10443;DHT22;5269;51.146;16.986;2023-05-10T01:09:44;8.30;1.00
10443;DHT22;5269;51.146;16.986;2023-05-10T01:12:13;8.30;1.00
10443;DHT22;5269;51.146;16.986;2023-05-10T01:14:42;8.20;1.00
10443;DHT22;5269;51.146;16.986;2023-05-10T01:17:11;8.10;1.00
10443;DHT22;5269;51.146;16.986;2023-05-10T01:19:38;8.10;7.00
10443;DHT22;5269;51.146;16.986;2023-05-10T01:22:25;8.00;9.90
10443;DHT22;5269;51.146;16.986;2023-05-10T01:25:37;8.00;33.80
10443;DHT22;5269;51.146;16.986;2023-05-10T01:28:45;8.00;40.70
10443;DHT22;5269;51.146;16.986;2023-05-10T01:31:33;7.90;74.60
10443;DHT22;5269;51.146;16.986;2023-05-10T01:34:16;7.80;99.70
10443;DHT22;5269;51.146;16.986;2023-05-10T01:36:48;7.80;99.90
10443;DHT22;5269;51.146;16.986;2023-05-10T01:39:23;7.80;99.90
10443;DHT22;5269;51.146;16.986;2023-05-10T01:41:54;7.80;99.90
10443;DHT22;5269;51.146;16.986;2023-05-10T01:44:31;7.70;99.90
10443;DHT22;5269;51.146;16.986;2023-05-10T01:47:10;7.70;99.90
10443;DHT22;5269;51.146;16.986;2023-05-10T01:49:49;7.60;99.90
10443;DHT22;5269;51.146;16.986;2023-05-10T01:52:18;7.50;99.90
10443;DHT22;5269;51.146;16.986;2023-05-10T01:54:52;7.50;99.90
10443;DHT22;5269;51.146;16.986;2023-05-10T01:57:22;7.50;99.90
10443;DHT22;5269;51.146;16.986;2023-05-10T01:59:55;7.40;99.90
10443;DHT22;5269;51.146;16.986;2023-05-10T02:02:24;7.40;99.90
10443;DHT22;5269;51.146;16.986;2023-05-10T02:04:57;7.30;99.90
10443;DHT22;5269;51.146;16.986;2023-05-10T02:07:45;7.30;99.90
10443;DHT22;5269;51.146;16.986;2023-05-10T02:10:15;7.30;99.90
10443;DHT22;5269;51.146;16.986;2023-05-10T02:12:46;7.30;1.00
10443;DHT22;5269;51.146;16.986;2023-05-10T02:15:20;7.30;99.90
10443;DHT22;5269;51.146;16.986;2023-05-10T02:17:47;7.20;99.90
10443;DHT22;5269;51.146;16.986;2023-05-10T02:20:25;7.10;1.00
10443;DHT22;5269;51.146;16.986;2023-05-10T02:22:54;7.00;1.00
10443;DHT22;5269;51.146;16.986;2023-05-10T02:25:25;7.00;1.00
10443;DHT22;5269;51.146;16.986;2023-05-10T02:27:55;6.90;1.00
10443;DHT22;5269;51.146;16.986;2023-05-10T02:30:24;6.90;1.00
10443;DHT22;5269;51.146;16.986;2023-05-10T02:32:57;6.90;1.00
10443;DHT22;5269;51.146;16.986;2023-05-10T02:35:38;6.90;1.00
10443;DHT22;5269;51.146;16.986;2023-05-10T02:38:08;6.90;1.00
10443;DHT22;5269;51.146;16.986;2023-05-10T02:40:43;6.80;1.00
10443;DHT22;5269;51.146;16.986;2023-05-10T02:43:25;6.70;1.00
10443;DHT22;5269;51.146;16.986;2023-05-10T02:45:58;6.70;1.00
10443;DHT22;5269;51.146;16.986;2023-05-10T02:48:36;6.60;1.00
10443;DHT22;5269;51.146;16.986;2023-05-10T02:51:16;6.70;1.00
10443;DHT22;5269;51.146;16.986;2023-05-10T02:53:57;6.60;1.00
10443;DHT22;5269;51.146;16.986;2023-05-10T02:56:33;6.70;1.00
10443;DHT22;5269;51.146;16.986;2023-05-10T02:59:03;6.70;1.00
10443;DHT22;5269;51.146;16.986;2023-05-10T03:01:30;6.70;1.00
10443;DHT22;5269;51.146;16.986;2023-05-10T03:04:04;6.70;1.00
10443;DHT22;5269;51.146;16.986;2023-05-10T03:06:34;6.70;1.00
10443;DHT22;5269;51.146;16.986;2023-05-10T03:09:04;6.70;1.00
10443;DHT22;5269;51.146;16.986;2023-05-10T03:11:50;6.60;1.00
10443;DHT22;5269;51.146;16.986;2023-05-10T03:14:48;6.70;1.00
10443;DHT22;5269;51.146;16.986;2023-05-10T03:17:23;6.70;1.00
10443;DHT22;5269;51.146;16.986;2023-05-10T03:19:55;6.70;1.00
10443;DHT22;5269;51.146;16.986;2023-05-10T03:22:26;6.70;1.00
10443;DHT22;5269;51.146;16.986;2023-05-10T03:24:58;6.80;1.00
10443;DHT22;5269;51.146;16.986;2023-05-10T03:27:35;6.80;1.00
10443;DHT22;5269;51.146;16.986;2023-05-10T03:30:06;6.80;1.00
10443;DHT22;5269;51.146;16.986;2023-05-10T03:32:34;6.90;1.00
10443;DHT22;5269;51.146;16.986;2023-05-10T03:35:06;6.80;1.00
10443;DHT22;5269;51.146;16.986;2023-05-10T03:37:35;7.00;1.00
10443;DHT22;5269;51.146;16.986;2023-05-10T03:40:05;7.00;1.00
10443;DHT22;5269;51.146;16.986;2023-05-10T03:42:38;7.10;1.00
10443;DHT22;5269;51.146;16.986;2023-05-10T03:45:17;7.10;1.00
10443;DHT22;5269;51.146;16.986;2023-05-10T03:47:56;7.20;1.00
10443;DHT22;5269;51.146;16.986;2023-05-10T03:50:34;7.30;1.00
10443;DHT22;5269;51.146;16.986;2023-05-10T03:53:04;7.40;1.00
10443;DHT22;5269;51.146;16.986;2023-05-10T03:55:51;7.40;1.00
10443;DHT22;5269;51.146;16.986;2023-05-10T03:58:18;7.50;99.90
10443;DHT22;5269;51.146;16.986;2023-05-10T04:00:57;7.60;99.90
10443;DHT22;5269;51.146;16.986;2023-05-10T04:03:26;7.70;99.90
10443;DHT22;5269;51.146;16.986;2023-05-10T04:06:06;7.80;99.90
10443;DHT22;5269;51.146;16.986;2023-05-10T04:08:38;7.90;99.90
10443;DHT22;5269;51.146;16.986;2023-05-10T04:11:17;8.10;99.90
10443;DHT22;5269;51.146;16.986;2023-05-10T04:13:46;8.30;93.20
10443;DHT22;5269;51.146;16.986;2023-05-10T04:16:14;8.40;28.20
10443;DHT22;5269;51.146;16.986;2023-05-10T04:18:47;8.50;1.00
10443;DHT22;5269;51.146;16.986;2023-05-10T04:21:26;8.60;1.00
10443;DHT22;5269;51.146;16.986;2023-05-10T04:23:54;8.70;1.00
10443;DHT22;5269;51.146;16.986;2023-05-10T04:26:27;8.90;1.00
10443;DHT22;5269;51.146;16.986;2023-05-10T04:28:54;8.90;1.00
10443;DHT22;5269;51.146;16.986;2023-05-10T04:31:55;9.10;1.00
10443;DHT22;5269;51.146;16.986;2023-05-10T04:34:25;9.20;1.00
10443;DHT22;5269;51.146;16.986;2023-05-10T04:36:57;9.40;1.00
10443;DHT22;5269;51.146;16.986;2023-05-10T04:39:26;9.50;1.00
10443;DHT22;5269;51.146;16.986;2023-05-10T04:45:16;9.70;1.00
10443;DHT22;5269;51.146;16.986;2023-05-10T04:47:46;9.80;1.00
10443;DHT22;5269;51.146;16.986;2023-05-10T04:50:15;9.90;1.00
10443;DHT22;5269;51.146;16.986;2023-05-10T04:52:44;9.90;1.00
10443;DHT22;5269;51.146;16.986;2023-05-10T04:55:16;10.10;1.00
10443;DHT22;5269;51.146;16.986;2023-05-10T04:57:45;10.20;1.00
10443;DHT22;5269;51.146;16.986;2023-05-10T05:00:18;10.30;1.00
10443;DHT22;5269;51.146;16.986;2023-05-10T05:02:45;10.40;1.00
10443;DHT22;5269;51.146;16.986;2023-05-10T05:05:12;10.40;1.00
10443;DHT22;5269;51.146;16.986;2023-05-10T05:07:40;10.50;1.00
10443;DHT22;5269;51.146;16.986;2023-05-10T05:10:14;10.70;1.00
10443;DHT22;5269;51.146;16.986;2023-05-10T05:12:43;10.80;1.00
10443;DHT22;5269;51.146;16.986;2023-05-10T05:15:14;10.90;1.00
10443;DHT22;5269;51.146;16.986;2023-05-10T05:17:43;11.00;1.00
10443;DHT22;5269;51.146;16.986;2023-05-10T05:20:16;11.10;1.00
10443;DHT22;5269;51.146;16.986;2023-05-10T05:22:50;11.00;1.00
10443;DHT22;5269;51.146;16.986;2023-05-10T05:25:24;11.10;1.00
10443;DHT22;5269;51.146;16.986;2023-05-10T05:27:52;11.20;1.00
10443;DHT22;5269;51.146;16.986;2023-05-10T05:30:20;11.40;1.00
10443;DHT22;5269;51.146;16.986;2023-05-10T05:32:55;11.60;1.00
10443;DHT22;5269;51.146;16.986;2023-05-10T05:35:24;11.80;1.00
10443;DHT22;5269;51.146;16.986;2023-05-10T05:37:51;11.80;1.00
10443;DHT22;5269;51.146;16.986;2023-05-10T05:40:26;11.80;1.00
10443;DHT22;5269;51.146;16.986;2023-05-10T05:42:54;12.00;1.00
10443;DHT22;5269;51.146;16.986;2023-05-10T05:45:34;12.00;1.00
10443;DHT22;5269;51.146;16.986;2023-05-10T05:48:15;12.10;1.00
10443;DHT22;5269;51.146;16.986;2023-05-10T05:50:49;12.30;1.00
10443;DHT22;5269;51.146;16.986;2023-05-10T05:53:17;12.30;1.00
10443;DHT22;5269;51.146;16.986;2023-05-10T05:55:55;12.40;1.00
10443;DHT22;5269;51.146;16.986;2023-05-10T05:58:25;12.50;1.00
10443;DHT22;5269;51.146;16.986;2023-05-10T06:00:55;12.70;1.00
10443;DHT22;5269;51.146;16.986;2023-05-10T06:03:22;12.70;1.00
10443;DHT22;5269;51.146;16.986;2023-05-10T06:05:49;12.70;1.00
10443;DHT22;5269;51.146;16.986;2023-05-10T06:08:16;12.90;1.00
10443;DHT22;5269;51.146;16.986;2023-05-10T06:10:43;13.00;1.00
10443;DHT22;5269;51.146;16.986;2023-05-10T06:13:15;13.10;1.00
10443;DHT22;5269;51.146;16.986;2023-05-10T06:15:42;13.20;1.00
10443;DHT22;5269;51.146;16.986;2023-05-10T06:18:09;13.30;1.00
10443;DHT22;5269;51.146;16.986;2023-05-10T06:20:36;13.40;1.00
10443;DHT22;5269;51.146;16.986;2023-05-10T06:23:05;13.40;1.00
10443;DHT22;5269;51.146;16.986;2023-05-10T06:25:32;13.60;1.00
10443;DHT22;5269;51.146;16.986;2023-05-10T06:28:01;13.60;1.00
10443;DHT22;5269;51.146;16.986;2023-05-10T06:30:29;13.70;1.00
10443;DHT22;5269;51.146;16.986;2023-05-10T06:33:06;13.70;1.00
10443;DHT22;5269;51.146;16.986;2023-05-10T06:35:34;13.70;1.00
10443;DHT22;5269;51.146;16.986;2023-05-10T06:38:05;13.80;1.00
10443;DHT22;5269;51.146;16.986;2023-05-10T06:40:36;13.80;1.00
10443;DHT22;5269;51.146;16.986;2023-05-10T06:43:05;13.90;1.00
10443;DHT22;5269;51.146;16.986;2023-05-10T06:45:35;14.10;99.90
10443;DHT22;5269;51.146;16.986;2023-05-10T06:48:04;14.10;99.90
10443;DHT22;5269;51.146;16.986;2023-05-10T06:50:33;14.10;99.90
10443;DHT22;5269;51.146;16.986;2023-05-10T06:53:00;14.30;99.90
10443;DHT22;5269;51.146;16.986;2023-05-10T06:55:32;14.50;99.90
10443;DHT22;5269;51.146;16.986;2023-05-10T06:58:07;14.60;99.90
10443;DHT22;5269;51.146;16.986;2023-05-10T07:00:35;14.70;99.90
10443;DHT22;5269;51.146;16.986;2023-05-10T07:03:06;14.70;99.90
10443;DHT22;5269;51.146;16.986;2023-05-10T07:05:33;14.90;99.90
10443;DHT22;5269;51.146;16.986;2023-05-10T07:08:00;15.00;99.90
10443;DHT22;5269;51.146;16.986;2023-05-10T07:10:27;15.00;99.90
10443;DHT22;5269;51.146;16.986;2023-05-10T07:13:17;15.10;99.90
10443;DHT22;5269;51.146;16.986;2023-05-10T07:15:45;15.20;99.90
10443;DHT22;5269;51.146;16.986;2023-05-10T07:18:12;15.40;99.90
10443;DHT22;5269;51.146;16.986;2023-05-10T07:20:42;15.30;99.90
10443;DHT22;5269;51.146;16.986;2023-05-10T07:23:09;15.30;99.90
10443;DHT22;5269;51.146;16.986;2023-05-10T07:25:36;15.30;99.90
10443;DHT22;5269;51.146;16.986;2023-05-10T07:28:03;15.50;99.90
10443;DHT22;5269;51.146;16.986;2023-05-10T07:30:30;15.70;99.90
10443;DHT22;5269;51.146;16.986;2023-05-10T07:33:00;15.80;99.90
10443;DHT22;5269;51.146;16.986;2023-05-10T07:35:27;15.80;99.90
10443;DHT22;5269;51.146;16.986;2023-05-10T07:37:54;15.90;99.90
10443;DHT22;5269;51.146;16.986;2023-05-10T07:40:21;16.00;99.90
10443;DHT22;5269;51.146;16.986;2023-05-10T07:42:48;16.10;99.90
10443;DHT22;5269;51.146;16.986;2023-05-10T07:45:15;16.10;99.90
10443;DHT22;5269;51.146;16.986;2023-05-10T07:47:42;16.10;99.90
10443;DHT22;5269;51.146;16.986;2023-05-10T07:50:11;16.10;99.90
10443;DHT22;5269;51.146;16.986;2023-05-10T07:52:43;16.30;99.90
10443;DHT22;5269;51.146;16.986;2023-05-10T07:55:13;16.30;99.90
10443;DHT22;5269;51.146;16.986;2023-05-10T07:57:40;16.50;99.90
10443;DHT22;5269;51.146;16.986;2023-05-10T08:00:07;16.50;99.90
10443;DHT22;5269;51.146;16.986;2023-05-10T08:02:35;16.70;99.90
10443;DHT22;5269;51.146;16.986;2023-05-10T08:05:05;16.80;99.90
10443;DHT22;5269;51.146;16.986;2023-05-10T08:07:34;16.70;99.90
10443;DHT22;5269;51.146;16.986;2023-05-10T08:10:01;16.80;99.90
10443;DHT22;5269;51.146;16.986;2023-05-10T08:12:35;16.90;99.90
10443;DHT22;5269;51.146;16.986;2023-05-10T08:15:02;17.00;99.90
10443;DHT22;5269;51.146;16.986;2023-05-10T08:17:29;16.90;99.90
10443;DHT22;5269;51.146;16.986;2023-05-10T08:19:56;16.90;99.90
10443;DHT22;5269;51.146;16.986;2023-05-10T08:22:25;17.00;99.90
10443;DHT22;5269;51.146;16.986;2023-05-10T08:24:53;17.10;99.90
10443;DHT22;5269;51.146;16.986;2023-05-10T08:27:22;17.30;99.90
10443;DHT22;5269;51.146;16.986;2023-05-10T08:29:50;17.30;99.90
10443;DHT22;5269;51.146;16.986;2023-05-10T08:32:22;17.10;99.90
10443;DHT22;5269;51.146;16.986;2023-05-10T08:34:55;17.20;99.90
10443;DHT22;5269;51.146;16.986;2023-05-10T08:37:24;17.30;99.90
10443;DHT22;5269;51.146;16.986;2023-05-10T08:39:54;17.50;99.90
10443;DHT22;5269;51.146;16.986;2023-05-10T08:42:22;17.50;99.90
10443;DHT22;5269;51.146;16.986;2023-05-10T08:44:54;17.40;99.90
10443;DHT22;5269;51.146;16.986;2023-05-10T08:47:23;17.70;99.90
10443;DHT22;5269;51.146;16.986;2023-05-10T08:49:52;17.90;99.90
10443;DHT22;5269;51.146;16.986;2023-05-10T08:52:20;17.90;99.90
10443;DHT22;5269;51.146;16.986;2023-05-10T08:54:48;17.90;99.90
10443;DHT22;5269;51.146;16.986;2023-05-10T08:57:19;17.80;99.90
10443;DHT22;5269;51.146;16.986;2023-05-10T08:59:46;17.80;99.90
10443;DHT22;5269;51.146;16.986;2023-05-10T09:02:14;17.80;99.90
10443;DHT22;5269;51.146;16.986;2023-05-10T09:04:41;18.00;99.90
10443;DHT22;5269;51.146;16.986;2023-05-10T09:07:29;18.20;99.90
10443;DHT22;5269;51.146;16.986;2023-05-10T09:10:08;18.20;99.90
10443;DHT22;5269;51.146;16.986;2023-05-10T09:12:57;18.30;99.90
10443;DHT22;5269;51.146;16.986;2023-05-10T09:18:57;18.40;99.90
10443;DHT22;5269;51.146;16.986;2023-05-10T09:21:26;18.50;99.90
10443;DHT22;5269;51.146;16.986;2023-05-10T09:24:05;18.50;99.90
10443;DHT22;5269;51.146;16.986;2023-05-10T09:37:36;18.80;99.90
10443;DHT22;5269;51.146;16.986;2023-05-10T09:40:18;18.90;99.90
10443;DHT22;5269;51.146;16.986;2023-05-10T09:42:56;19.00;99.90
10443;DHT22;5269;51.146;16.986;2023-05-10T09:48:56;18.90;99.90
10443;DHT22;5269;51.146;16.986;2023-05-10T11:27:18;20.30;99.90
10443;DHT22;5269;51.146;16.986;2023-05-10T11:29:45;20.40;99.90
10443;DHT22;5269;51.146;16.986;2023-05-10T11:32:15;20.70;99.90
10443;DHT22;5269;51.146;16.986;2023-05-10T11:34:49;20.60;99.90
10443;DHT22;5269;51.146;16.986;2023-05-10T11:37:18;20.70;99.90
10443;DHT22;5269;51.146;16.986;2023-05-10T11:39:51;20.70;99.90
10443;DHT22;5269;51.146;16.986;2023-05-10T11:42:22;20.70;99.90
10443;DHT22;5269;51.146;16.986;2023-05-10T11:44:52;20.80;99.90
10443;DHT22;5269;51.146;16.986;2023-05-10T11:47:39;20.80;99.90
10443;DHT22;5269;51.146;16.986;2023-05-10T11:50:10;20.80;99.90
10443;DHT22;5269;51.146;16.986;2023-05-10T11:52:52;20.80;99.90
10443;DHT22;5269;51.146;16.986;2023-05-10T11:55:20;20.80;99.90
10443;DHT22;5269;51.146;16.986;2023-05-10T11:57:53;21.20;99.90
10443;DHT22;5269;51.146;16.986;2023-05-10T12:00:23;21.00;99.90
10443;DHT22;5269;51.146;16.986;2023-05-10T12:02:52;20.90;99.90
10443;DHT22;5269;51.146;16.986;2023-05-10T12:05:26;20.70;99.90
10443;DHT22;5269;51.146;16.986;2023-05-10T12:11:06;20.80;99.90
10443;DHT22;5269;51.146;16.986;2023-05-10T12:13:39;20.70;99.90
10443;DHT22;5269;51.146;16.986;2023-05-10T12:16:18;20.50;99.90
10443;DHT22;5269;51.146;16.986;2023-05-10T12:18:59;20.70;99.90
10443;DHT22;5269;51.146;16.986;2023-05-10T12:21:29;20.70;99.90
10443;DHT22;5269;51.146;16.986;2023-05-10T12:24:06;20.70;99.90
10443;DHT22;5269;51.146;16.986;2023-05-10T12:26:38;20.80;99.90
10443;DHT22;5269;51.146;16.986;2023-05-10T12:29:37;20.70;99.90
10443;DHT22;5269;51.146;16.986;2023-05-10T12:35:44;21.10;99.90
10443;DHT22;5269;51.146;16.986;2023-05-10T12:38:32;21.10;99.90
10443;DHT22;5269;51.146;16.986;2023-05-10T12:41:06;20.80;99.90
10443;DHT22;5269;51.146;16.986;2023-05-10T12:43:37;21.00;99.90
10443;DHT22;5269;51.146;16.986;2023-05-10T12:46:07;20.80;99.90
10443;DHT22;5269;51.146;16.986;2023-05-10T12:48:38;21.10;99.90
10443;DHT22;5269;51.146;16.986;2023-05-10T12:51:18;21.30;99.90
10443;DHT22;5269;51.146;16.986;2023-05-10T12:53:49;21.00;99.90
10443;DHT22;5269;51.146;16.986;2023-05-10T12:56:16;21.30;99.90
10443;DHT22;5269;51.146;16.986;2023-05-10T12:58:47;21.30;99.90
10443;DHT22;5269;51.146;16.986;2023-05-10T13:01:16;21.30;99.90
10443;DHT22;5269;51.146;16.986;2023-05-10T13:03:46;21.30;99.90
10443;DHT22;5269;51.146;16.986;2023-05-10T13:06:13;21.20;99.90
10443;DHT22;5269;51.146;16.986;2023-05-10T13:08:46;21.00;99.90
10443;DHT22;5269;51.146;16.986;2023-05-10T13:11:15;21.00;99.90
10443;DHT22;5269;51.146;16.986;2023-05-10T13:13:44;21.10;99.90
10443;DHT22;5269;51.146;16.986;2023-05-10T13:16:13;20.90;99.90
10443;DHT22;5269;51.146;16.986;2023-05-10T13:18:43;20.90;99.90
10443;DHT22;5269;51.146;16.986;2023-05-10T13:21:16;21.00;99.90
10443;DHT22;5269;51.146;16.986;2023-05-10T13:23:45;21.10;99.90
10443;DHT22;5269;51.146;16.986;2023-05-10T13:26:14;21.00;99.90
10443;DHT22;5269;51.146;16.986;2023-05-10T13:28:43;21.00;99.90
10443;DHT22;5269;51.146;16.986;2023-05-10T13:31:31;21.20;99.90
10443;DHT22;5269;51.146;16.986;2023-05-10T13:34:05;21.20;99.90
10443;DHT22;5269;51.146;16.986;2023-05-10T13:53:35;21.40;99.90
10443;DHT22;5269;51.146;16.986;2023-05-10T14:26:35;21.80;99.90
10443;DHT22;5269;51.146;16.986;2023-05-10T14:32:38;21.60;99.90
10443;DHT22;5269;51.146;16.986;2023-05-10T14:37:34;21.20;99.90
10443;DHT22;5269;51.146;16.986;2023-05-10T14:40:17;21.10;99.90
10443;DHT22;5269;51.146;16.986;2023-05-10T14:42:57;21.20;99.90
10443;DHT22;5269;51.146;16.986;2023-05-10T14:45:34;21.40;99.90
10443;DHT22;5269;51.146;16.986;2023-05-10T14:48:01;22.00;99.90
10443;DHT22;5269;51.146;16.986;2023-05-10T14:53:58;22.20;99.90
10443;DHT22;5269;51.146;16.986;2023-05-10T14:56:28;22.10;99.90
10443;DHT22;5269;51.146;16.986;2023-05-10T14:58:59;21.70;99.90
10443;DHT22;5269;51.146;16.986;2023-05-10T15:01:29;21.80;99.90
10443;DHT22;5269;51.146;16.986;2023-05-10T15:04:17;22.10;99.90
10443;DHT22;5269;51.146;16.986;2023-05-10T15:06:47;22.30;99.90
10443;DHT22;5269;51.146;16.986;2023-05-10T15:09:17;22.30;99.90
10443;DHT22;5269;51.146;16.986;2023-05-10T15:11:45;22.10;99.90
10443;DHT22;5269;51.146;16.986;2023-05-10T15:14:48;22.00;99.90
10443;DHT22;5269;51.146;16.986;2023-05-10T15:17:35;22.20;99.90
10443;DHT22;5269;51.146;16.986;2023-05-10T15:20:06;22.30;99.90
10443;DHT22;5269;51.146;16.986;2023-05-10T15:25:56;21.60;99.90
10443;DHT22;5269;51.146;16.986;2023-05-10T15:35:28;21.80;99.90
10443;DHT22;5269;51.146;16.986;2023-05-10T15:59:56;22.60;99.90
10443;DHT22;5269;51.146;16.986;2023-05-10T16:05:47;22.20;99.90
10443;DHT22;5269;51.146;16.986;2023-05-10T16:11:38;22.60;99.90
10443;DHT22;5269;51.146;16.986;2023-05-10T16:17:39;22.70;99.90
10443;DHT22;5269;51.146;16.986;2023-05-10T16:23:39;22.90;99.90
10443;DHT22;5269;51.146;16.986;2023-05-10T16:29:48;22.70;99.90
10443;DHT22;5269;51.146;16.986;2023-05-10T16:36:50;23.10;99.90
10443;DHT22;5269;51.146;16.986;2023-05-10T16:42:17;23.60;99.90
10443;DHT22;5269;51.146;16.986;2023-05-10T16:48:17;23.50;99.90
10443;DHT22;5269;51.146;16.986;2023-05-10T16:50:45;23.50;99.90
10443;DHT22;5269;51.146;16.986;2023-05-10T16:56:38;22.70;99.90
10443;DHT22;5269;51.146;16.986;2023-05-10T17:06:37;22.30;99.90
10443;DHT22;5269;51.146;16.986;2023-05-10T17:12:25;22.50;99.90
10443;DHT22;5269;51.146;16.986;2023-05-10T17:15:13;23.00;99.90
10443;DHT22;5269;51.146;16.986;2023-05-10T17:20:38;22.90;99.90
10443;DHT22;5269;51.146;16.986;2023-05-10T17:23:26;22.70;99.90
10443;DHT22;5269;51.146;16.986;2023-05-10T17:25:53;22.00;99.90
10443;DHT22;5269;51.146;16.986;2023-05-10T17:28:45;21.80;99.90
10443;DHT22;5269;51.146;16.986;2023-05-10T17:31:16;21.40;99.90
10443;DHT22;5269;51.146;16.986;2023-05-10T17:33:46;21.40;99.90
10443;DHT22;5269;51.146;16.986;2023-05-10T17:36:15;21.50;99.90
10443;DHT22;5269;51.146;16.986;2023-05-10T17:38:47;21.30;99.90
10443;DHT22;5269;51.146;16.986;2023-05-10T17:41:15;20.90;99.90
10443;DHT22;5269;51.146;16.986;2023-05-10T17:43:58;20.60;99.90
10443;DHT22;5269;51.146;16.986;2023-05-10T17:46:25;20.30;99.90
10443;DHT22;5269;51.146;16.986;2023-05-10T17:48:59;20.10;99.90
10443;DHT22;5269;51.146;16.986;2023-05-10T17:51:46;20.00;99.90
10443;DHT22;5269;51.146;16.986;2023-05-10T17:54:27;19.90;99.90
10443;DHT22;5269;51.146;16.986;2023-05-10T17:56:58;19.80;99.90
10443;DHT22;5269;51.146;16.986;2023-05-10T17:59:27;19.60;99.90
10443;DHT22;5269;51.146;16.986;2023-05-10T18:02:06;19.50;99.90
10443;DHT22;5269;51.146;16.986;2023-05-10T18:04:57;19.40;99.90
10443;DHT22;5269;51.146;16.986;2023-05-10T18:07:28;19.20;99.90
10443;DHT22;5269;51.146;16.986;2023-05-10T18:09:57;19.20;99.90
10443;DHT22;5269;51.146;16.986;2023-05-10T18:12:25;19.10;99.90
10443;DHT22;5269;51.146;16.986;2023-05-10T18:14:52;19.00;99.90
10443;DHT22;5269;51.146;16.986;2023-05-10T18:17:19;19.00;99.90
10443;DHT22;5269;51.146;16.986;2023-05-10T18:19:51;18.90;99.90
10443;DHT22;5269;51.146;16.986;2023-05-10T18:22:19;18.70;99.90
10443;DHT22;5269;51.146;16.986;2023-05-10T18:24:46;18.80;99.90
10443;DHT22;5269;51.146;16.986;2023-05-10T18:27:17;18.70;99.90
10443;DHT22;5269;51.146;16.986;2023-05-10T18:29:44;18.60;99.90
10443;DHT22;5269;51.146;16.986;2023-05-10T18:32:11;18.60;99.90
10443;DHT22;5269;51.146;16.986;2023-05-10T18:34:38;18.50;99.90
10443;DHT22;5269;51.146;16.986;2023-05-10T18:37:05;18.50;99.90
10443;DHT22;5269;51.146;16.986;2023-05-10T18:39:38;18.40;99.90
10443;DHT22;5269;51.146;16.986;2023-05-10T18:42:06;18.40;99.90
10443;DHT22;5269;51.146;16.986;2023-05-10T18:44:35;18.40;99.90
10443;DHT22;5269;51.146;16.986;2023-05-10T18:47:02;18.30;99.90
10443;DHT22;5269;51.146;16.986;2023-05-10T18:49:32;18.30;99.90
10443;DHT22;5269;51.146;16.986;2023-05-10T18:52:09;18.20;99.90
10443;DHT22;5269;51.146;16.986;2023-05-10T18:54:42;18.20;99.90
10443;DHT22;5269;51.146;16.986;2023-05-10T18:57:16;18.20;99.90
10443;DHT22;5269;51.146;16.986;2023-05-10T18:59:46;18.10;99.90
10443;DHT22;5269;51.146;16.986;2023-05-10T19:02:15;18.10;99.90
10443;DHT22;5269;51.146;16.986;2023-05-10T19:04:42;18.00;99.90
10443;DHT22;5269;51.146;16.986;2023-05-10T19:07:15;17.90;99.90
10443;DHT22;5269;51.146;16.986;2023-05-10T19:09:44;17.90;99.90
10443;DHT22;5269;51.146;16.986;2023-05-10T19:12:11;17.70;99.90
10443;DHT22;5269;51.146;16.986;2023-05-10T19:14:38;17.60;99.90
10443;DHT22;5269;51.146;16.986;2023-05-10T19:17:09;17.50;99.90
10443;DHT22;5269;51.146;16.986;2023-05-10T19:19:36;17.40;99.90
10443;DHT22;5269;51.146;16.986;2023-05-10T19:22:09;17.40;99.90
10443;DHT22;5269;51.146;16.986;2023-05-10T19:24:37;17.40;99.90
10443;DHT22;5269;51.146;16.986;2023-05-10T19:27:04;17.40;99.90
10443;DHT22;5269;51.146;16.986;2023-05-10T19:29:37;17.40;99.90
10443;DHT22;5269;51.146;16.986;2023-05-10T19:32:04;17.40;99.90
10443;DHT22;5269;51.146;16.986;2023-05-10T19:34:38;17.40;99.90
10443;DHT22;5269;51.146;16.986;2023-05-10T19:37:05;17.40;99.90
10443;DHT22;5269;51.146;16.986;2023-05-10T19:39:37;17.40;99.90
10443;DHT22;5269;51.146;16.986;2023-05-10T19:42:05;17.40;99.90
10443;DHT22;5269;51.146;16.986;2023-05-10T19:44:38;17.30;99.90
10443;DHT22;5269;51.146;16.986;2023-05-10T19:47:05;17.10;99.90
10443;DHT22;5269;51.146;16.986;2023-05-10T19:52:49;17.20;99.90
10443;DHT22;5269;51.146;16.986;2023-05-10T19:55:25;17.00;99.90
10443;DHT22;5269;51.146;16.986;2023-05-10T19:57:53;16.80;99.90
10443;DHT22;5269;51.146;16.986;2023-05-10T20:00:20;16.70;99.90
10443;DHT22;5269;51.146;16.986;2023-05-10T20:02:49;16.50;99.90
10443;DHT22;5269;51.146;16.986;2023-05-10T20:05:16;16.40;99.90
10443;DHT22;5269;51.146;16.986;2023-05-10T20:07:45;16.20;99.90
10443;DHT22;5269;51.146;16.986;2023-05-10T20:10:15;16.10;1.00
10443;DHT22;5269;51.146;16.986;2023-05-10T20:12:45;16.00;1.00
10443;DHT22;5269;51.146;16.986;2023-05-10T20:15:16;15.80;1.00
10443;DHT22;5269;51.146;16.986;2023-05-10T20:17:43;15.50;1.00
10443;DHT22;5269;51.146;16.986;2023-05-10T20:20:11;15.40;1.00
10443;DHT22;5269;51.146;16.986;2023-05-10T20:22:40;15.30;1.00
10443;DHT22;5269;51.146;16.986;2023-05-10T20:25:07;15.30;1.00
10443;DHT22;5269;51.146;16.986;2023-05-10T20:27:36;15.30;1.00
10443;DHT22;5269;51.146;16.986;2023-05-10T20:30:06;15.30;1.00
10443;DHT22;5269;51.146;16.986;2023-05-10T20:32:34;15.30;1.00